CheckWX is a tool to help pilots better visualize weather data.  It is not intended as a substitute for an official pre-flight weather briefing.

10:09:39 UTC

KPSM TAF
Portsmouth International at Pease Airport
Portsmouth, New Hampshire, USA
KPSM 260910Z 2609/2706 33005KT 5SM BR FEW002 BKN008 OVC100 FM261400 05006KT P6SM BKN045 FM262200 09007KT 5SM BR SCT008

Jun-26@
09:00 UTC

Jun-26 @ 09:00 UTC

Jun-26@
14:00 UTC

Jun-26 @ 14:00 UTC

KPSM 260910Z 2609/2706 33005KT 5SM BR FEW002 BKN008 OVC100
Wind
  • 330° at 5 KTS
Conditions
Mist
Cloud Levels
  • Few at 200' AGL
  • Broken at 800' AGL
  • Overcast at 10,000' AGL

Jun-26@
14:00 UTC

Jun-26 @ 14:00 UTC

Jun-26@
22:00 UTC

Jun-26 @ 22:00 UTC

FM261400 05006KT P6SM BKN045

From

From Standard forecast or significant change

Wind
  • 050° at 6 KTS
Cloud Levels
  • Broken at 4,500' AGL

Jun-26@
22:00 UTC

Jun-26 @ 22:00 UTC

Jun-27@
06:00 UTC

Jun-27 @ 06:00 UTC

FM262200 09007KT 5SM BR SCT008

From

From Standard forecast or significant change

Wind
  • 090° at 7 KTS
Conditions
Mist
Cloud Levels
  • Scattered at 800' AGL